Lebo, Kansas
Current Conditions -  °F | °C
As of 7:14 PM on Sunday 23 Nov 2014 (Local Time) from KEMP Reporting Station
Overcast Overcast  
Wind Chill: 31°   Ceiling: 5500
Heat Index: 40°   Visibility: 10mi
Dew Point: 38°   Wind: 17mph
Humidity: 93%   Direction: 330°NNW
Pressure: 29.54"   Gusts: NA
Location:  38.42°N, 95.85°W
Report Text: KEMP 240114Z AUTO 33015KT 10SM FEW016 BKN055 OVC070 04/03 A2954 RMK AO2 PK WND 35027/0054 RAE06 P0000 T00440033
Loading
Personal Weather Stations






























Interactive Weather Map New forecast layout! Learn more

10-Day Weather Forecast

Advertisements
Track Severe Weather on mobile